createdAt,value
2018-07-31T00:01:13.455Z,22.90
2018-07-31T00:04:37.882Z,22.90
2018-07-31T00:08:02.281Z,22.90
2018-07-31T00:11:26.743Z,22.80
2018-07-31T00:14:51.159Z,22.80
2018-07-31T00:18:15.571Z,22.70
2018-07-31T00:21:40.117Z,22.60
2018-07-31T00:25:04.606Z,22.60
2018-07-31T00:28:29.079Z,22.60
2018-07-31T00:31:53.496Z,22.50
2018-07-31T00:35:17.909Z,22.50
2018-07-31T00:38:42.330Z,22.50
2018-07-31T00:42:06.806Z,22.40
2018-07-31T00:45:31.253Z,22.40
2018-07-31T00:48:55.666Z,22.30
2018-07-31T00:52:20.155Z,22.20
2018-07-31T00:55:44.686Z,22.20
2018-07-31T00:59:09.269Z,22.10
2018-07-31T01:02:33.910Z,22.10
2018-07-31T01:05:58.340Z,22.10
2018-07-31T01:09:22.986Z,22.10
2018-07-31T01:12:47.658Z,22.00
2018-07-31T01:16:12.171Z,22.10
2018-07-31T01:19:36.622Z,22.00
2018-07-31T01:23:01.163Z,22.00
2018-07-31T01:26:25.729Z,22.00
2018-07-31T01:29:50.353Z,21.90
2018-07-31T01:33:14.870Z,21.90
2018-07-31T01:36:39.441Z,21.90
2018-07-31T01:40:04.034Z,21.90
2018-07-31T01:43:28.578Z,21.90
2018-07-31T01:46:53.121Z,21.90
2018-07-31T01:50:18.101Z,21.90
2018-07-31T01:53:42.557Z,21.90
2018-07-31T01:57:06.981Z,21.80
2018-07-31T02:00:31.538Z,21.80
2018-07-31T02:03:56.124Z,21.90
2018-07-31T02:07:20.627Z,21.90
2018-07-31T02:10:47.951Z,21.80
2018-07-31T02:14:12.358Z,21.80
2018-07-31T02:17:36.792Z,21.80
2018-07-31T02:21:01.210Z,21.80
2018-07-31T02:24:25.652Z,21.80
2018-07-31T02:27:50.088Z,21.80
2018-07-31T02:31:14.591Z,21.70
2018-07-31T02:34:39.008Z,21.70
2018-07-31T02:38:03.505Z,21.70
2018-07-31T02:41:27.934Z,21.60
2018-07-31T02:44:52.592Z,21.50
2018-07-31T02:48:17.011Z,21.50
2018-07-31T02:51:41.456Z,21.40
2018-07-31T02:55:06.861Z,21.30
2018-07-31T02:58:31.293Z,21.20
2018-07-31T03:01:55.739Z,21.00
2018-07-31T03:05:20.149Z,20.90
2018-07-31T03:08:44.589Z,20.90
2018-07-31T03:12:09.031Z,20.90
2018-07-31T03:15:33.477Z,20.80
2018-07-31T03:18:57.906Z,20.80
2018-07-31T03:22:22.342Z,20.70
2018-07-31T03:25:46.875Z,20.70
2018-07-31T03:29:11.416Z,20.70
2018-07-31T03:32:36.086Z,20.70
2018-07-31T03:36:00.575Z,20.70
2018-07-31T03:39:25.048Z,20.70
2018-07-31T03:42:49.513Z,20.60
2018-07-31T03:46:14.096Z,20.60
2018-07-31T03:49:38.573Z,20.50
2018-07-31T03:53:03.189Z,20.50
2018-07-31T03:56:27.743Z,20.40
2018-07-31T03:59:52.339Z,20.40
2018-07-31T04:03:16.855Z,20.40
2018-07-31T04:06:41.389Z,20.40
2018-07-31T04:10:06.144Z,20.40
2018-07-31T04:13:30.655Z,20.40
2018-07-31T04:16:55.231Z,20.40
2018-07-31T04:20:19.743Z,20.40
2018-07-31T04:23:44.302Z,20.40
2018-07-31T04:27:08.835Z,20.40
2018-07-31T04:30:33.279Z,20.40
2018-07-31T04:33:57.795Z,20.40
2018-07-31T04:37:22.444Z,20.50
2018-07-31T04:40:46.934Z,20.50
2018-07-31T04:44:11.425Z,20.50
2018-07-31T04:47:36.171Z,20.50
2018-07-31T04:51:00.678Z,20.60
2018-07-31T04:54:25.184Z,20.60
2018-07-31T04:57:49.739Z,20.60
2018-07-31T05:01:14.297Z,20.70
2018-07-31T05:04:38.775Z,20.70
2018-07-31T05:08:03.240Z,20.80
2018-07-31T05:11:27.717Z,20.80
2018-07-31T05:14:52.236Z,20.90
2018-07-31T05:18:17.487Z,21.00
2018-07-31T05:21:41.953Z,21.10
2018-07-31T05:25:06.834Z,21.20
2018-07-31T05:28:31.343Z,21.30
2018-07-31T05:31:55.856Z,21.40
2018-07-31T05:35:20.393Z,21.60
2018-07-31T05:38:44.983Z,21.80
2018-07-31T05:42:09.449Z,21.90
2018-07-31T05:45:34.007Z,22.00
2018-07-31T05:48:58.572Z,22.20
2018-07-31T05:52:23.850Z,22.30
2018-07-31T05:55:48.396Z,22.40
2018-07-31T05:59:12.941Z,22.50
2018-07-31T06:02:37.480Z,22.60
2018-07-31T06:06:01.952Z,22.80
2018-07-31T06:09:26.578Z,22.90
2018-07-31T06:12:51.057Z,23.00
2018-07-31T06:16:15.571Z,23.10
2018-07-31T06:19:40.203Z,23.20
2018-07-31T06:23:04.680Z,23.30
2018-07-31T06:26:29.298Z,23.50
2018-07-31T06:29:53.835Z,23.70
2018-07-31T06:33:18.384Z,23.90
2018-07-31T06:36:42.944Z,23.90
2018-07-31T06:40:07.815Z,24.00
2018-07-31T06:43:32.373Z,24.10
2018-07-31T06:46:56.857Z,24.10
2018-07-31T06:50:21.379Z,24.10
2018-07-31T06:53:50.765Z,24.10
2018-07-31T06:57:15.191Z,24.10
2018-07-31T07:00:39.649Z,24.10
2018-07-31T07:04:04.111Z,24.20
2018-07-31T07:07:28.738Z,24.40
2018-07-31T07:10:53.188Z,24.60
2018-07-31T07:14:17.661Z,24.80
2018-07-31T07:17:42.181Z,24.90
2018-07-31T07:21:07.045Z,25.00
2018-07-31T07:24:31.540Z,25.00
2018-07-31T07:27:56.048Z,25.10
2018-07-31T07:31:20.537Z,25.20
2018-07-31T07:34:45.069Z,25.40
2018-07-31T07:38:09.511Z,25.50
2018-07-31T07:41:34.062Z,25.50
2018-07-31T07:48:22.629Z,25.30
2018-07-31T07:51:47.145Z,25.30
2018-07-31T07:55:11.664Z,25.40
2018-07-31T07:58:36.132Z,25.40
2018-07-31T08:02:00.555Z,25.40
2018-07-31T08:05:24.989Z,25.40
2018-07-31T08:08:49.471Z,25.60
2018-07-31T08:12:13.888Z,25.60
2018-07-31T08:15:38.339Z,25.80
2018-07-31T08:19:02.785Z,25.80
2018-07-31T08:22:27.238Z,26.00
2018-07-31T08:26:07.360Z,26.20
2018-07-31T08:29:31.762Z,26.40
2018-07-31T08:32:56.197Z,26.60
2018-07-31T08:36:20.640Z,26.80
2018-07-31T08:39:45.033Z,26.90
2018-07-31T08:43:09.470Z,27.10
2018-07-31T08:46:34.016Z,27.20
2018-07-31T08:49:58.535Z,27.40
2018-07-31T08:53:23.105Z,27.70
2018-07-31T08:56:47.645Z,27.80
2018-07-31T09:00:12.198Z,28.00
2018-07-31T09:03:36.722Z,28.10
2018-07-31T09:07:01.207Z,28.50
2018-07-31T09:10:25.693Z,28.80
2018-07-31T09:13:50.191Z,29.10
2018-07-31T09:17:14.674Z,29.10
2018-07-31T09:20:39.282Z,28.90
2018-07-31T09:24:03.895Z,29.20
2018-07-31T09:27:28.578Z,29.00
2018-07-31T09:30:58.242Z,29.20
2018-07-31T09:34:22.698Z,29.10
2018-07-31T09:37:47.142Z,29.30
2018-07-31T09:41:11.568Z,29.20
2018-07-31T09:44:36.002Z,29.50
2018-07-31T09:48:00.499Z,29.60
2018-07-31T09:51:24.923Z,29.60
2018-07-31T09:54:49.440Z,29.90
2018-07-31T09:58:13.858Z,30.30
2018-07-31T10:01:38.278Z,29.90
2018-07-31T10:05:02.773Z,29.90
2018-07-31T10:08:27.161Z,30.10
2018-07-31T10:11:51.594Z,30.00
2018-07-31T10:15:16.032Z,29.90
2018-07-31T10:18:40.460Z,30.20
2018-07-31T10:22:04.863Z,30.80
2018-07-31T10:25:29.289Z,30.70
2018-07-31T10:28:53.730Z,30.00
2018-07-31T10:32:18.140Z,29.50
2018-07-31T10:35:42.539Z,29.60
2018-07-31T10:39:09.062Z,30.10
2018-07-31T10:42:33.572Z,30.50
2018-07-31T10:45:58.201Z,30.10
2018-07-31T10:49:22.977Z,29.90
2018-07-31T10:52:47.517Z,29.60
2018-07-31T10:56:12.255Z,30.10
2018-07-31T10:59:36.917Z,30.60
2018-07-31T11:03:01.509Z,30.70
2018-07-31T11:06:25.957Z,30.80
2018-07-31T11:09:50.478Z,31.30
2018-07-31T11:13:14.986Z,31.90
2018-07-31T11:16:39.519Z,32.30
2018-07-31T11:20:04.077Z,32.70
2018-07-31T11:23:28.602Z,31.90
2018-07-31T11:26:53.161Z,31.40
2018-07-31T11:30:17.622Z,31.30
2018-07-31T11:33:42.070Z,31.70
2018-07-31T11:37:06.530Z,32.40
2018-07-31T11:40:31.007Z,31.90
2018-07-31T11:43:55.450Z,31.40
2018-07-31T11:47:19.911Z,31.10
2018-07-31T11:50:44.341Z,31.40
2018-07-31T11:54:08.786Z,31.80
2018-07-31T11:57:33.220Z,31.40
2018-07-31T12:04:21.844Z,32.10
2018-07-31T12:07:46.254Z,32.80
2018-07-31T12:11:10.830Z,33.10
2018-07-31T12:14:35.292Z,32.90
2018-07-31T12:17:59.731Z,32.90
2018-07-31T12:21:24.179Z,32.80
2018-07-31T12:24:48.824Z,32.80
2018-07-31T12:28:13.260Z,33.10
2018-07-31T12:31:37.699Z,33.00
2018-07-31T12:35:02.100Z,33.00
2018-07-31T12:38:26.651Z,33.70
2018-07-31T12:41:51.102Z,34.40
2018-07-31T12:45:15.547Z,34.40
2018-07-31T12:48:40.157Z,34.40
2018-07-31T12:52:04.798Z,35.80
2018-07-31T12:55:29.375Z,36.70
2018-07-31T12:58:53.961Z,36.80
2018-07-31T13:02:18.550Z,37.70
2018-07-31T13:05:43.150Z,38.70
2018-07-31T13:09:08.958Z,39.40
2018-07-31T13:12:33.506Z,40.10
2018-07-31T13:15:57.952Z,39.50
2018-07-31T13:19:29.003Z,39.80
2018-07-31T13:22:53.751Z,39.20
2018-07-31T13:26:18.277Z,38.90
2018-07-31T13:29:42.779Z,39.00
2018-07-31T13:33:07.512Z,38.70
2018-07-31T13:36:32.044Z,39.20
2018-07-31T13:39:56.621Z,39.50
2018-07-31T13:43:21.101Z,40.00
2018-07-31T13:46:45.657Z,40.60
2018-07-31T13:50:10.447Z,41.90
2018-07-31T13:53:34.945Z,42.90
2018-07-31T13:56:59.596Z,42.10
2018-07-31T14:00:24.287Z,42.30
2018-07-31T14:03:48.705Z,42.60
2018-07-31T14:07:13.262Z,42.00
2018-07-31T14:10:37.882Z,42.10
2018-07-31T14:14:02.451Z,42.30
2018-07-31T14:17:26.902Z,41.70
2018-07-31T14:20:51.400Z,41.50
2018-07-31T14:24:15.958Z,42.90
2018-07-31T14:27:40.903Z,43.20
2018-07-31T14:31:05.424Z,43.30
2018-07-31T14:34:29.966Z,44.00
2018-07-31T14:37:54.444Z,43.80
2018-07-31T14:41:18.934Z,44.10
2018-07-31T14:44:43.422Z,45.10
2018-07-31T14:48:08.028Z,44.60
2018-07-31T14:51:32.572Z,45.90
2018-07-31T14:54:57.091Z,45.50
2018-07-31T14:58:21.614Z,44.60
2018-07-31T15:01:46.244Z,44.20
2018-07-31T15:05:10.804Z,44.30
2018-07-31T15:08:38.675Z,45.30
2018-07-31T15:12:03.102Z,45.50
2018-07-31T15:15:27.548Z,45.70
2018-07-31T15:18:52.228Z,46.00
2018-07-31T15:22:16.638Z,46.70
2018-07-31T15:25:41.084Z,47.50
2018-07-31T15:29:05.524Z,47.80
2018-07-31T15:32:29.964Z,47.10
2018-07-31T15:35:55.059Z,45.70
2018-07-31T15:39:19.474Z,45.50
2018-07-31T15:42:43.890Z,46.90
2018-07-31T15:46:08.381Z,48.10
2018-07-31T15:49:32.783Z,49.30
2018-07-31T15:52:57.522Z,49.20
2018-07-31T15:56:22.009Z,49.30
2018-07-31T15:59:46.441Z,48.90
2018-07-31T16:27:11.418Z,48.00
2018-07-31T16:30:35.851Z,46.20
2018-07-31T16:34:00.365Z,43.60
2018-07-31T16:37:24.741Z,41.10
2018-07-31T16:40:49.246Z,40.50
2018-07-31T16:44:13.733Z,41.50
2018-07-31T16:47:38.256Z,42.20
2018-07-31T16:51:02.712Z,41.90
2018-07-31T16:54:27.167Z,40.90
2018-07-31T16:57:51.782Z,41.20
2018-07-31T17:01:16.252Z,41.50
2018-07-31T17:04:40.663Z,41.50
2018-07-31T17:08:05.087Z,39.90
2018-07-31T17:11:30.039Z,38.20
2018-07-31T17:14:54.453Z,36.80
2018-07-31T17:18:18.882Z,35.90
2018-07-31T17:21:43.303Z,35.10
2018-07-31T17:25:07.825Z,34.50
2018-07-31T17:28:32.334Z,33.70
2018-07-31T17:31:56.892Z,33.40
2018-07-31T17:35:21.339Z,33.10
2018-07-31T17:38:45.763Z,32.80
2018-07-31T17:42:10.267Z,32.40
2018-07-31T17:45:34.834Z,32.10
2018-07-31T17:48:59.331Z,31.80
2018-07-31T17:52:23.888Z,31.40
2018-07-31T17:55:48.386Z,31.20
2018-07-31T17:59:12.861Z,30.90
2018-07-31T18:02:37.398Z,30.70
2018-07-31T18:06:02.251Z,30.50
2018-07-31T18:09:26.774Z,30.40
2018-07-31T18:12:51.258Z,30.20
2018-07-31T18:16:15.771Z,30.00
2018-07-31T18:19:40.355Z,29.80
2018-07-31T18:23:05.033Z,29.40
2018-07-31T18:26:29.519Z,29.30
2018-07-31T18:29:54.324Z,29.20
2018-07-31T18:33:18.816Z,28.90
2018-07-31T18:36:43.294Z,28.80
2018-07-31T18:40:08.289Z,28.60
2018-07-31T18:43:32.900Z,28.40
2018-07-31T18:46:57.387Z,28.10
2018-07-31T18:50:21.982Z,28.00
2018-07-31T18:53:46.483Z,27.80
2018-07-31T18:57:11.009Z,27.70
2018-07-31T19:00:35.505Z,27.40
2018-07-31T19:03:59.993Z,27.20
2018-07-31T19:07:25.123Z,26.90
2018-07-31T19:10:50.289Z,26.80
2018-07-31T19:14:15.495Z,26.70
2018-07-31T19:17:40.476Z,26.50
2018-07-31T19:21:05.497Z,26.30
2018-07-31T19:24:31.182Z,26.20
2018-07-31T19:27:55.692Z,26.10
2018-07-31T19:31:20.407Z,25.90
2018-07-31T19:34:45.413Z,25.80
2018-07-31T19:38:10.508Z,25.80
2018-07-31T19:41:35.515Z,25.70
2018-07-31T19:45:00.559Z,25.60
2018-07-31T19:48:25.523Z,25.50
2018-07-31T19:51:50.667Z,25.40
2018-07-31T19:55:15.851Z,25.30
2018-07-31T19:58:40.650Z,25.30
2018-07-31T20:02:05.201Z,25.10
2018-07-31T20:05:29.673Z,25.10
2018-07-31T20:08:54.172Z,25.00
2018-07-31T20:12:18.802Z,25.00
2018-07-31T20:15:43.345Z,24.90
2018-07-31T20:19:07.833Z,24.80
2018-07-31T20:22:33.176Z,24.70
2018-07-31T20:25:57.683Z,24.70
2018-07-31T20:29:22.409Z,24.70
2018-07-31T20:32:46.910Z,24.70
2018-07-31T20:36:11.450Z,24.70
2018-07-31T20:39:36.508Z,24.60
2018-07-31T20:43:00.927Z,24.60
2018-07-31T20:49:49.678Z,24.40
2018-07-31T20:53:14.539Z,24.20
2018-07-31T20:56:38.980Z,24.20
2018-07-31T21:00:03.490Z,24.20
2018-07-31T21:03:28.002Z,24.10
2018-07-31T21:10:16.681Z,24.00
2018-07-31T21:13:41.113Z,24.00
2018-07-31T21:17:05.547Z,23.90
2018-07-31T21:20:29.974Z,23.90
2018-07-31T21:23:54.364Z,23.80
2018-07-31T21:27:18.861Z,23.70
2018-07-31T21:30:43.308Z,23.70
2018-07-31T21:34:07.788Z,23.60
2018-07-31T21:37:38.005Z,23.60
2018-07-31T21:41:02.439Z,23.40
2018-07-31T21:44:26.966Z,23.40
2018-07-31T21:47:51.415Z,23.20
2018-07-31T21:51:16.314Z,23.10
2018-07-31T21:54:40.741Z,23.00
2018-07-31T21:58:05.425Z,23.00
2018-07-31T22:01:29.868Z,22.90
2018-07-31T22:04:54.600Z,22.80
2018-07-31T22:08:19.244Z,22.80
2018-07-31T22:11:43.788Z,22.70
2018-07-31T22:15:08.478Z,22.70
2018-07-31T22:18:32.989Z,22.70
2018-07-31T22:21:57.605Z,22.60
2018-07-31T22:25:22.128Z,22.60
2018-07-31T22:28:46.592Z,22.60
2018-07-31T22:32:11.152Z,22.60
2018-07-31T22:35:35.777Z,22.50
2018-07-31T22:39:01.061Z,22.50
2018-07-31T22:46:57.698Z,22.40
2018-07-31T22:50:22.569Z,22.40
2018-07-31T22:53:47.117Z,22.40
2018-07-31T22:57:11.575Z,22.40
2018-07-31T23:00:36.015Z,22.40
2018-07-31T23:04:00.525Z,22.30
2018-07-31T23:07:24.992Z,22.30
2018-07-31T23:10:49.412Z,22.30
2018-07-31T23:14:13.884Z,22.20
2018-07-31T23:17:38.248Z,22.20
2018-07-31T23:21:02.806Z,22.20
2018-07-31T23:24:27.276Z,22.10
2018-07-31T23:31:16.063Z,22.10
2018-07-31T23:34:40.476Z,22.10
2018-07-31T23:38:04.993Z,22.00
2018-07-31T23:41:29.466Z,22.00
2018-07-31T23:44:54.658Z,21.90
2018-07-31T23:48:19.095Z,21.90
2018-07-31T23:51:43.532Z,21.90
2018-07-31T23:55:08.019Z,21.80
2018-07-31T23:58:32.479Z,21.80
